createdAt,value
2018-09-11T00:01:27.007Z,3.73
2018-09-11T00:03:55.583Z,3.40
2018-09-11T00:06:24.678Z,3.33
2018-09-11T00:08:53.110Z,3.80
2018-09-11T00:11:21.564Z,3.53
2018-09-11T00:13:50.024Z,3.40
2018-09-11T00:16:18.818Z,3.47
2018-09-11T00:18:47.752Z,4.50
2018-09-11T00:21:16.832Z,3.37
2018-09-11T00:23:45.414Z,3.37
2018-09-11T00:26:14.047Z,3.73
2018-09-11T00:28:42.722Z,4.07
2018-09-11T00:31:11.226Z,3.50
2018-09-11T00:33:39.752Z,4.17
2018-09-11T00:36:08.340Z,4.10
2018-09-11T00:38:37.018Z,4.20
2018-09-11T00:41:05.504Z,4.40
2018-09-11T00:43:33.994Z,3.47
2018-09-11T00:46:02.482Z,4.70
2018-09-11T00:48:31.153Z,3.93
2018-09-11T00:51:00.359Z,3.93
2018-09-11T00:53:29.109Z,4.33
2018-09-11T00:55:57.652Z,4.03
2018-09-11T00:58:26.184Z,3.87
2018-09-11T01:00:54.663Z,4.57
2018-09-11T01:03:23.173Z,4.60
2018-09-11T01:05:51.781Z,4.67
2018-09-11T01:08:20.373Z,4.27
2018-09-11T01:10:48.952Z,5.10
2018-09-11T01:13:18.145Z,4.60
2018-09-11T01:15:46.688Z,4.70
2018-09-11T01:18:15.233Z,4.83
2018-09-11T01:20:43.735Z,4.93
2018-09-11T01:23:12.152Z,4.50
2018-09-11T01:25:40.584Z,4.43
2018-09-11T01:28:09.137Z,4.60
2018-09-11T01:30:37.897Z,5.20
2018-09-11T01:33:06.365Z,4.50
2018-09-11T01:35:35.068Z,4.47
2018-09-11T01:38:03.543Z,5.17
2018-09-11T01:40:32.788Z,4.50
2018-09-11T01:43:01.322Z,4.50
2018-09-11T01:45:29.779Z,4.97
2018-09-11T01:47:58.245Z,4.27
2018-09-11T01:50:26.730Z,4.43
2018-09-11T01:52:55.164Z,4.83
2018-09-11T01:55:23.617Z,4.77
2018-09-11T01:57:52.144Z,4.77
2018-09-11T02:00:21.414Z,4.93
2018-09-11T02:02:49.874Z,4.23
2018-09-11T02:05:19.965Z,4.60
2018-09-11T02:07:48.842Z,4.47
2018-09-11T02:10:17.270Z,4.77
2018-09-11T02:12:45.774Z,4.57
2018-09-11T02:15:14.249Z,4.07
2018-09-11T02:17:42.867Z,4.70
2018-09-11T02:20:11.334Z,4.07
2018-09-11T02:22:39.928Z,4.90
2018-09-11T02:25:15.177Z,4.03
2018-09-11T02:27:43.615Z,4.43
2018-09-11T02:30:12.109Z,4.53
2018-09-11T02:32:40.544Z,4.77
2018-09-11T02:35:09.295Z,4.80
2018-09-11T02:37:37.750Z,4.27
2018-09-11T02:40:06.269Z,4.47
2018-09-11T02:42:35.284Z,4.80
2018-09-11T02:45:03.776Z,5.30
2018-09-11T02:47:32.222Z,4.63
2018-09-11T02:50:00.692Z,5.43
2018-09-11T02:52:29.177Z,5.97
2018-09-11T02:54:57.814Z,5.07
2018-09-11T02:57:26.278Z,5.97
2018-09-11T02:59:54.726Z,5.17
2018-09-11T03:02:23.158Z,4.60
2018-09-11T03:04:51.699Z,5.43
2018-09-11T03:07:20.154Z,4.70
2018-09-11T03:09:48.953Z,4.73
2018-09-11T03:12:17.412Z,4.70
2018-09-11T03:14:45.904Z,4.20
2018-09-11T03:17:14.412Z,4.93
2018-09-11T03:19:42.867Z,4.57
2018-09-11T03:22:11.359Z,4.33
2018-09-11T03:24:40.451Z,4.90
2018-09-11T03:27:09.668Z,4.17
2018-09-11T03:29:38.120Z,4.50
2018-09-11T03:32:06.725Z,4.47
2018-09-11T03:34:35.365Z,4.63
2018-09-11T03:37:03.830Z,4.37
2018-09-11T03:39:32.259Z,5.07
2018-09-11T03:42:00.855Z,4.50
2018-09-11T03:44:30.148Z,4.97
2018-09-11T03:46:58.629Z,4.57
2018-09-11T03:49:27.115Z,4.50
2018-09-11T03:51:55.525Z,5.03
2018-09-11T03:54:23.968Z,5.07
2018-09-11T03:56:52.419Z,4.80
2018-09-11T03:59:20.939Z,4.33
2018-09-11T04:01:49.416Z,4.43
2018-09-11T04:04:17.992Z,4.97
2018-09-11T04:06:46.455Z,5.23
2018-09-11T04:09:14.909Z,5.63
2018-09-11T04:11:43.515Z,5.30
2018-09-11T04:14:12.059Z,5.43
2018-09-11T04:16:40.626Z,5.80
2018-09-11T04:19:09.177Z,6.13
2018-09-11T04:21:37.659Z,6.60
2018-09-11T04:24:06.320Z,6.20
2018-09-11T04:26:34.811Z,5.70
2018-09-11T04:29:03.371Z,6.00
2018-09-11T04:31:31.928Z,6.30
2018-09-11T04:34:00.437Z,5.97
2018-09-11T04:36:29.130Z,5.77
2018-09-11T04:38:57.731Z,7.03
2018-09-11T04:41:26.130Z,6.80
2018-09-11T04:43:54.600Z,5.67
2018-09-11T04:46:23.072Z,6.10
2018-09-11T04:48:51.527Z,6.53
2018-09-11T04:51:20.590Z,6.37
2018-09-11T04:53:49.150Z,5.87
2018-09-11T04:56:17.668Z,5.43
2018-09-11T04:58:46.277Z,5.60
2018-09-11T05:01:14.801Z,5.50
2018-09-11T05:03:43.401Z,5.40
2018-09-11T05:06:11.951Z,5.30
2018-09-11T05:08:40.483Z,5.77
2018-09-11T05:11:09.335Z,5.30
2018-09-11T05:13:37.955Z,5.33
2018-09-11T05:16:06.477Z,5.60
2018-09-11T05:18:35.447Z,5.67
2018-09-11T05:21:03.967Z,5.20
2018-09-11T05:23:32.568Z,4.53
2018-09-11T05:26:01.113Z,4.60
2018-09-11T05:28:33.165Z,4.90
2018-09-11T05:31:01.661Z,5.60
2018-09-11T05:33:30.114Z,5.87
2018-09-11T05:35:58.660Z,5.33
2018-09-11T05:38:27.927Z,5.27
2018-09-11T05:40:56.471Z,5.50
2018-09-11T05:43:25.059Z,5.30
2018-09-11T05:45:53.649Z,6.17
2018-09-11T05:48:22.133Z,5.87
2018-09-11T05:50:50.834Z,5.50
2018-09-11T05:53:19.299Z,5.30
2018-09-11T05:55:47.877Z,5.33
2018-09-11T05:58:16.403Z,5.37
2018-09-11T06:00:44.839Z,5.60
2018-09-11T06:03:13.310Z,5.30
2018-09-11T06:05:41.887Z,5.63
2018-09-11T06:08:10.319Z,6.27
2018-09-11T06:10:38.822Z,5.63
2018-09-11T06:13:07.432Z,5.93
2018-09-11T06:15:36.192Z,5.37
2018-09-11T06:18:04.690Z,5.97
2018-09-11T06:20:33.683Z,5.87
2018-09-11T06:23:02.255Z,6.33
2018-09-11T06:25:30.698Z,5.87
2018-09-11T06:28:01.029Z,6.10
2018-09-11T06:30:29.496Z,5.70
2018-09-11T06:32:58.227Z,4.97
2018-09-11T06:35:26.773Z,4.97
2018-09-11T06:37:55.213Z,5.43
2018-09-11T06:40:23.861Z,4.60
2018-09-11T06:42:52.358Z,4.73
2018-09-11T06:45:20.873Z,4.70
2018-09-11T06:47:49.427Z,4.77
2018-09-11T06:50:17.976Z,4.93
2018-09-11T06:52:46.533Z,4.30
2018-09-11T06:55:15.512Z,4.10
2018-09-11T06:57:44.050Z,4.17
2018-09-11T07:00:12.641Z,4.03
2018-09-11T07:02:41.343Z,4.30
2018-09-11T07:05:09.841Z,4.10
2018-09-11T07:07:38.333Z,3.70
2018-09-11T07:10:07.325Z,3.80
2018-09-11T07:12:35.905Z,4.00
2018-09-11T07:15:04.771Z,4.80
2018-09-11T07:17:33.245Z,4.30
2018-09-11T07:20:01.999Z,3.93
2018-09-11T07:22:30.475Z,4.20
2018-09-11T07:24:59.076Z,3.87
2018-09-11T07:27:27.739Z,4.30
2018-09-11T07:29:56.209Z,4.30
2018-09-11T07:32:24.754Z,3.70
2018-09-11T07:34:53.268Z,3.87
2018-09-11T07:37:22.501Z,3.80
2018-09-11T07:39:51.164Z,3.87
2018-09-11T07:42:19.891Z,3.60
2018-09-11T07:44:48.911Z,4.07
2018-09-11T07:47:17.382Z,4.30
2018-09-11T07:49:45.905Z,4.07
2018-09-11T07:52:14.414Z,4.33
2018-09-11T07:54:42.967Z,3.67
2018-09-11T07:57:11.439Z,4.00
2018-09-11T07:59:39.963Z,4.07
2018-09-11T08:02:08.580Z,3.67
2018-09-11T08:04:37.147Z,3.50
2018-09-11T08:07:05.834Z,3.53
2018-09-11T08:09:34.369Z,3.73
2018-09-11T08:12:02.861Z,3.67
2018-09-11T08:14:31.437Z,3.63
2018-09-11T08:17:00.037Z,3.33
2018-09-11T08:19:28.585Z,3.43
2018-09-11T08:21:57.120Z,3.03
2018-09-11T08:24:25.833Z,3.67
2018-09-11T08:26:54.345Z,3.33
2018-09-11T08:29:24.606Z,4.10
2018-09-11T08:31:53.171Z,3.20
2018-09-11T08:34:21.782Z,3.73
2018-09-11T08:36:51.059Z,3.43
2018-09-11T08:39:20.406Z,3.43
2018-09-11T08:41:49.005Z,3.53
2018-09-11T08:44:17.528Z,3.53
2018-09-11T08:46:46.172Z,3.90
2018-09-11T08:49:14.736Z,3.60
2018-09-11T08:51:43.442Z,3.60
2018-09-11T08:54:12.517Z,3.40
2018-09-11T08:56:41.235Z,3.73
2018-09-11T08:59:09.971Z,4.07
2018-09-11T09:01:38.605Z,3.53
2018-09-11T09:04:07.126Z,3.47
2018-09-11T09:06:35.689Z,3.47
2018-09-11T09:09:06.197Z,3.53
2018-09-11T09:11:34.817Z,3.50
2018-09-11T09:14:03.381Z,3.83
2018-09-11T09:16:32.158Z,3.80
2018-09-11T09:19:00.741Z,3.60
2018-09-11T09:21:29.362Z,4.23
2018-09-11T09:23:58.041Z,3.60
2018-09-11T09:26:26.601Z,3.77
2018-09-11T09:28:55.215Z,3.10
2018-09-11T09:31:23.658Z,3.00
2018-09-11T09:33:52.414Z,3.33
2018-09-11T09:36:21.015Z,3.27
2018-09-11T09:38:50.498Z,2.90
2018-09-11T09:41:19.109Z,3.10
2018-09-11T09:43:47.744Z,3.37
2018-09-11T09:46:16.326Z,3.30
2018-09-11T09:48:44.811Z,3.10
2018-09-11T09:51:14.104Z,3.33
2018-09-11T09:53:42.639Z,3.30
2018-09-11T09:56:11.169Z,3.33
2018-09-11T09:58:39.893Z,2.87
2018-09-11T10:01:13.862Z,2.90
2018-09-11T10:03:42.523Z,2.80
2018-09-11T10:06:11.259Z,2.50
2018-09-11T10:08:47.189Z,2.87
2018-09-11T10:11:15.658Z,2.97
2018-09-11T10:13:44.191Z,3.13
2018-09-11T10:16:12.714Z,3.33
2018-09-11T10:18:41.232Z,3.53
2018-09-11T10:21:09.750Z,3.33
2018-09-11T10:23:38.222Z,3.10
2018-09-11T10:26:06.992Z,3.03
2018-09-11T10:28:35.481Z,2.97
2018-09-11T10:31:03.957Z,2.70
2018-09-11T10:33:32.443Z,3.00
2018-09-11T10:36:01.162Z,2.40
2018-09-11T10:38:29.778Z,2.93
2018-09-11T10:40:58.404Z,2.90
2018-09-11T10:43:26.971Z,2.43
2018-09-11T10:45:55.673Z,2.33
2018-09-11T10:48:24.222Z,2.60
2018-09-11T10:50:52.823Z,2.47
2018-09-11T10:53:21.385Z,2.83
2018-09-11T10:55:50.407Z,2.70
2018-09-11T10:58:18.905Z,2.73
2018-09-11T11:00:47.462Z,2.53
2018-09-11T11:03:16.227Z,2.63
2018-09-11T11:05:44.709Z,3.20
2018-09-11T11:08:14.354Z,2.90
2018-09-11T11:10:42.964Z,3.30
2018-09-11T11:13:15.806Z,2.77
2018-09-11T11:15:44.363Z,2.40
2018-09-11T11:18:12.913Z,2.90
2018-09-11T11:20:41.703Z,2.50
2018-09-11T11:23:10.551Z,3.03
2018-09-11T11:25:39.096Z,2.50
2018-09-11T11:28:07.638Z,2.90
2018-09-11T11:30:36.344Z,3.77
2018-09-11T11:33:04.951Z,3.43
2018-09-11T11:35:33.630Z,2.83
2018-09-11T11:38:02.088Z,2.97
2018-09-11T11:40:30.704Z,3.10
2018-09-11T11:42:59.287Z,2.87
2018-09-11T11:45:27.923Z,2.87
2018-09-11T11:47:56.428Z,2.97
2018-09-11T11:50:25.523Z,2.87
2018-09-11T11:52:54.007Z,3.53
2018-09-11T11:55:22.608Z,2.83
2018-09-11T11:57:51.086Z,3.10
2018-09-11T12:00:19.669Z,2.83
2018-09-11T12:02:48.207Z,2.80
2018-09-11T12:05:16.801Z,3.20
2018-09-11T12:07:45.460Z,3.03
2018-09-11T12:10:14.038Z,3.80
2018-09-11T12:12:42.551Z,2.80
2018-09-11T12:15:11.189Z,2.83
2018-09-11T12:17:40.597Z,3.23
2018-09-11T12:20:09.193Z,2.90
2018-09-11T12:22:37.727Z,2.93
2018-09-11T12:25:06.258Z,3.50
2018-09-11T12:27:34.822Z,3.30
2018-09-11T12:30:03.469Z,3.40
2018-09-11T12:32:32.137Z,3.27
2018-09-11T12:35:00.683Z,3.20
2018-09-11T12:37:29.221Z,3.10
2018-09-11T12:39:57.815Z,3.00
2018-09-11T12:42:26.382Z,2.90
2018-09-11T12:44:54.998Z,3.40
2018-09-11T12:47:23.955Z,3.07
2018-09-11T12:49:52.141Z,3.47
2018-09-11T12:52:20.803Z,3.27
2018-09-11T12:54:49.385Z,2.93
2018-09-11T12:57:17.959Z,3.70
2018-09-11T12:59:46.581Z,3.57
2018-09-11T13:02:15.993Z,3.70
2018-09-11T13:04:44.553Z,3.13
2018-09-11T13:07:13.067Z,3.00
2018-09-11T13:09:41.673Z,3.50
2018-09-11T13:12:10.179Z,3.83
2018-09-11T13:14:38.657Z,3.70
2018-09-11T13:17:07.882Z,4.73
2018-09-11T13:19:36.582Z,3.43
2018-09-11T13:22:05.169Z,3.27
2018-09-11T13:24:33.709Z,3.27
2018-09-11T13:27:02.260Z,3.30
2018-09-11T13:29:30.755Z,3.83
2018-09-11T13:31:59.237Z,4.30
2018-09-11T13:34:27.796Z,4.70
2018-09-11T13:36:56.250Z,4.20
2018-09-11T13:39:24.760Z,4.40
2018-09-11T13:41:53.415Z,4.10
2018-09-11T13:44:22.615Z,4.97
2018-09-11T13:46:51.271Z,4.07
2018-09-11T13:49:19.714Z,4.50
2018-09-11T13:51:48.431Z,5.43
2018-09-11T13:54:17.149Z,4.77
2018-09-11T13:56:45.777Z,4.60
2018-09-11T13:59:14.425Z,3.97
2018-09-11T14:01:42.944Z,4.77
2018-09-11T14:04:11.540Z,4.43
2018-09-11T14:06:40.081Z,4.23
2018-09-11T14:09:12.103Z,4.80
2018-09-11T14:11:41.137Z,5.33
2018-09-11T14:14:09.768Z,4.83
2018-09-11T14:16:38.337Z,5.00
2018-09-11T14:19:07.141Z,4.60
2018-09-11T14:21:36.643Z,4.50
2018-09-11T14:24:05.568Z,4.60
2018-09-11T14:26:34.278Z,5.45
2018-09-11T14:29:03.315Z,5.97
2018-09-11T14:31:31.894Z,6.10
2018-09-11T14:34:00.814Z,5.23
2018-09-11T14:36:29.963Z,6.27
2018-09-11T14:38:58.617Z,6.00
2018-09-11T14:41:27.222Z,6.27
2018-09-11T14:43:55.933Z,6.00
2018-09-11T14:46:24.615Z,5.40
2018-09-11T14:48:53.259Z,5.73
2018-09-11T14:51:21.787Z,6.03
2018-09-11T14:53:50.305Z,6.73
2018-09-11T14:56:18.891Z,6.37
2018-09-11T14:58:47.547Z,6.17
2018-09-11T15:01:16.023Z,6.33
2018-09-11T15:03:44.579Z,6.33
2018-09-11T15:06:13.101Z,6.70
2018-09-11T15:08:41.862Z,6.70
2018-09-11T15:11:10.453Z,6.37
2018-09-11T15:13:38.991Z,6.40
2018-09-11T15:16:07.515Z,6.63
2018-09-11T15:18:36.384Z,6.80
2018-09-11T15:21:04.868Z,6.80
2018-09-11T15:23:33.647Z,6.37
2018-09-11T15:26:02.670Z,6.37
2018-09-11T15:28:31.401Z,6.20
2018-09-11T15:31:00.207Z,6.53
2018-09-11T15:33:28.974Z,7.57
2018-09-11T15:36:00.094Z,7.17
2018-09-11T15:38:28.533Z,6.83
2018-09-11T15:40:57.264Z,7.20
2018-09-11T15:43:26.030Z,7.97
2018-09-11T15:45:55.823Z,7.00
2018-09-11T15:48:25.701Z,8.00
2018-09-11T15:50:54.489Z,7.10
2018-09-11T15:53:23.159Z,7.43
2018-09-11T15:55:51.800Z,8.03
2018-09-11T15:58:20.282Z,8.27
2018-09-11T16:00:50.380Z,8.50
2018-09-11T16:03:19.193Z,7.10
2018-09-11T16:05:47.799Z,7.87
2018-09-11T16:08:16.335Z,8.30
2018-09-11T16:10:44.930Z,8.03
2018-09-11T16:13:13.807Z,7.40
2018-09-11T16:15:42.516Z,8.60
2018-09-11T16:18:11.093Z,7.70
2018-09-11T16:20:39.797Z,8.77
2018-09-11T16:23:08.242Z,8.23
2018-09-11T16:25:36.736Z,7.77
2018-09-11T16:28:05.437Z,7.77
2018-09-11T16:30:34.046Z,7.87
2018-09-11T16:33:02.539Z,7.70
2018-09-11T16:35:31.162Z,7.73
2018-09-11T16:37:59.827Z,7.03
2018-09-11T16:40:28.308Z,7.17
2018-09-11T16:42:57.198Z,7.57
2018-09-11T16:45:25.688Z,7.33
2018-09-11T16:47:54.236Z,7.53
2018-09-11T16:50:22.734Z,7.07
2018-09-11T16:52:51.446Z,6.17
2018-09-11T16:55:19.983Z,6.60
2018-09-11T16:57:48.525Z,6.23
2018-09-11T17:00:17.198Z,5.60
2018-09-11T17:02:45.839Z,6.30
2018-09-11T17:05:14.374Z,7.10
2018-09-11T17:07:43.003Z,6.40
2018-09-11T17:10:11.496Z,6.60
2018-09-11T17:12:40.076Z,6.03
2018-09-11T17:15:08.597Z,6.13
2018-09-11T17:17:37.242Z,6.37
2018-09-11T17:20:05.840Z,6.43
2018-09-11T17:22:34.365Z,7.63
2018-09-11T17:25:03.315Z,6.07
2018-09-11T17:27:31.827Z,6.13
2018-09-11T17:30:00.593Z,6.67
2018-09-11T17:32:29.130Z,6.20
2018-09-11T17:34:57.774Z,7.00
2018-09-11T17:37:26.373Z,6.87
2018-09-11T17:39:54.960Z,7.43
2018-09-11T17:42:23.629Z,10.73
2018-09-11T17:44:52.467Z,7.27
2018-09-11T17:47:21.080Z,7.87
2018-09-11T17:49:49.675Z,7.87
2018-09-11T17:52:18.712Z,8.33
2018-09-11T17:54:48.642Z,8.00
2018-09-11T17:57:17.561Z,7.37
2018-09-11T17:59:46.139Z,8.13
2018-09-11T18:02:14.893Z,8.20
2018-09-11T18:04:44.297Z,9.17
2018-09-11T18:07:12.919Z,9.23
2018-09-11T18:09:41.566Z,10.17
2018-09-11T18:12:10.713Z,9.53
2018-09-11T18:14:39.381Z,9.77
2018-09-11T18:17:08.092Z,8.83
2018-09-11T18:19:36.724Z,9.73
2018-09-11T18:22:05.375Z,10.73
2018-09-11T18:24:34.286Z,11.00
2018-09-11T18:27:02.869Z,10.57
2018-09-11T18:29:32.273Z,10.63
2018-09-11T18:32:00.895Z,9.63
2018-09-11T18:34:29.812Z,11.30
2018-09-11T18:36:58.408Z,12.40
2018-09-11T18:39:27.262Z,12.50
2018-09-11T18:41:55.843Z,11.47
2018-09-11T18:44:24.541Z,11.20
2018-09-11T18:46:53.314Z,12.07
2018-09-11T18:49:22.000Z,11.27
2018-09-11T18:51:50.973Z,11.10
2018-09-11T18:54:19.506Z,11.80
2018-09-11T18:56:48.162Z,11.50
2018-09-11T18:59:16.719Z,10.83
2018-09-11T19:01:46.190Z,7.50
2018-09-11T19:04:14.762Z,6.70
2018-09-11T19:06:43.807Z,7.20
2018-09-11T19:09:12.925Z,6.90
2018-09-11T19:11:41.832Z,6.60
2018-09-11T19:14:11.026Z,5.93
2018-09-11T19:16:39.839Z,6.10
2018-09-11T19:19:08.702Z,6.00
2018-09-11T19:21:38.057Z,5.93
2018-09-11T19:24:09.609Z,6.40
2018-09-11T19:26:38.398Z,7.00
2018-09-11T19:29:06.942Z,8.30
2018-09-11T19:31:36.093Z,7.67
2018-09-11T19:34:05.355Z,9.37
2018-09-11T19:36:34.040Z,8.87
2018-09-11T19:39:02.630Z,9.47
2018-09-11T19:41:31.493Z,9.50
2018-09-11T19:44:00.068Z,10.33
2018-09-11T19:46:28.615Z,10.10
2018-09-11T19:48:57.185Z,10.83
2018-09-11T19:51:25.759Z,10.40
2018-09-11T19:53:54.263Z,11.13
2018-09-11T19:56:22.987Z,10.90
2018-09-11T19:58:51.526Z,10.87
2018-09-11T20:01:20.117Z,10.10
2018-09-11T20:03:48.761Z,10.43
2018-09-11T20:06:17.281Z,9.93
2018-09-11T20:08:45.913Z,11.23
2018-09-11T20:11:14.648Z,10.90
2018-09-11T20:13:43.215Z,10.13
2018-09-11T20:16:11.783Z,11.63
2018-09-11T20:18:53.494Z,12.17
2018-09-11T20:21:36.961Z,12.50
2018-09-11T20:24:06.401Z,11.70
2018-09-11T20:26:35.013Z,11.13
2018-09-11T20:29:03.629Z,10.93
2018-09-11T20:31:32.186Z,10.40
2018-09-11T20:34:00.765Z,10.40
2018-09-11T20:36:31.166Z,10.03
2018-09-11T20:38:59.929Z,10.43
2018-09-11T20:41:29.758Z,10.50
2018-09-11T20:43:58.870Z,9.40
2018-09-11T20:46:27.531Z,9.43
2018-09-11T20:48:56.064Z,10.55
2018-09-11T20:51:24.664Z,10.03
2018-09-11T20:53:53.377Z,10.47
2018-09-11T20:56:23.355Z,10.13
2018-09-11T20:58:52.449Z,9.50
2018-09-11T21:01:21.599Z,10.07
2018-09-11T21:03:50.075Z,9.83
2018-09-11T21:06:18.679Z,9.50
2018-09-11T21:08:47.344Z,10.07
2018-09-11T21:11:15.916Z,9.33
2018-09-11T21:13:45.077Z,8.83
2018-09-11T21:16:13.918Z,8.33
2018-09-11T21:18:42.447Z,7.87
2018-09-11T21:21:11.184Z,7.20
2018-09-11T21:23:41.497Z,7.07
2018-09-11T21:26:10.099Z,6.80
2018-09-11T21:28:38.622Z,7.30
2018-09-11T21:31:07.447Z,6.37
2018-09-11T21:33:35.902Z,6.07
2018-09-11T21:36:04.381Z,6.13
2018-09-11T21:38:33.307Z,6.27
2018-09-11T21:41:01.857Z,6.70
2018-09-11T21:43:31.325Z,6.43
2018-09-11T21:46:00.647Z,6.27
2018-09-11T21:48:29.145Z,6.77
2018-09-11T21:50:57.767Z,6.20
2018-09-11T21:53:26.264Z,6.73
2018-09-11T21:55:54.922Z,6.53
2018-09-11T21:58:23.719Z,6.27
2018-09-11T22:00:57.892Z,5.80
2018-09-11T22:03:27.010Z,6.40
2018-09-11T22:05:56.029Z,6.37
2018-09-11T22:08:24.553Z,7.20
2018-09-11T22:10:53.187Z,7.40
2018-09-11T22:13:21.659Z,7.70
2018-09-11T22:15:50.217Z,7.40
2018-09-11T22:18:19.367Z,10.03
2018-09-11T22:20:47.840Z,9.13
2018-09-11T22:23:16.334Z,8.07
2018-09-11T22:25:44.804Z,9.33
2018-09-11T22:28:13.981Z,9.13
2018-09-11T22:30:42.574Z,10.47
2018-09-11T22:33:11.135Z,9.57
2018-09-11T22:35:39.783Z,10.50
2018-09-11T22:38:08.290Z,9.10
2018-09-11T22:40:36.789Z,9.27
2018-09-11T22:43:05.953Z,10.10
2018-09-11T22:45:35.377Z,8.33
2018-09-11T22:48:03.884Z,8.20
2018-09-11T22:50:33.097Z,9.30
2018-09-11T22:53:01.496Z,8.03
2018-09-11T22:55:31.224Z,10.07
2018-09-11T22:58:00.397Z,8.60
2018-09-11T23:00:29.170Z,9.30
2018-09-11T23:02:57.855Z,8.17
2018-09-11T23:05:26.407Z,9.23
2018-09-11T23:07:55.233Z,9.03
2018-09-11T23:10:24.097Z,8.60
2018-09-11T23:12:52.702Z,8.90
2018-09-11T23:15:21.410Z,12.33
2018-09-11T23:17:50.784Z,7.47
2018-09-11T23:20:19.391Z,7.17
2018-09-11T23:22:48.531Z,7.63
2018-09-11T23:25:17.689Z,7.63
2018-09-11T23:27:46.635Z,7.63
2018-09-11T23:30:15.426Z,10.10
2018-09-11T23:32:44.127Z,8.80
2018-09-11T23:35:12.767Z,8.47
2018-09-11T23:37:41.256Z,8.43
2018-09-11T23:40:09.886Z,8.50
2018-09-11T23:42:38.324Z,8.23
2018-09-11T23:45:06.839Z,8.80
2018-09-11T23:47:35.922Z,8.43
2018-09-11T23:50:04.513Z,8.47
2018-09-11T23:52:33.127Z,7.70
2018-09-11T23:55:01.693Z,7.20
2018-09-11T23:57:30.194Z,7.93
2018-09-11T23:59:58.752Z,7.67
